Terminal Aerodrome Forecast
Issued by NWS Omaha/Valley, NE

Home | Current Version | Previous Version | Graphics & Text | Print | Product List | Glossary On
Versions: 1 2 3 4 5 6 7 8 9 10 11 12 13 14 15 16 17 18 19 20 21 22 23 24 25 26 27 28 29 30 31 32 33 34 35 36
000
FTUS43 KOAX 231725
TAFOFK
TAF
KOFK 231725Z 2318/2418 33016G24KT P6SM SCT020 BKN050 OVC110
      TEMPO 2318/2319 -RA BKN020
     FM240100 33023G33KT P6SM OVC025
     FM241600 32023G33KT P6SM BKN035=

USA.gov is the U.S. government's official web portal to all federal, state and local government web resources and services.